Aérodrome :
LOGIN :

S'inscrire | Disclaimer

   EN    FR    IT 

 










Légende :    VFR   VFR Marginal   IFR   IFR Intensif   IFR Très Intensif
Visi : 
Plafond : 
>= 8 km
>= 3000ft
5 à 8 km
1000 à 3000 ft
1500m à 5 km
500 à 1000 ft
800 à 1500m
200 à 500 ft
< 800m
< 200 ft
Symboles :   Orages  Brouillard  Fortes neiges  Fortes précipitations  Vent > 20 kt
SIGMETs :   Divers  Orages  Givrage  Turbulence  Onde Orograph.  Cendres Volcan.






- Altitude de l'aérodrome : 3 ft
- Code IATA : LWR


EHLW - Leuuwarden Air Base

DERNIER METAR :
  • 170025Z AUTO 23024KT 9999 NCD 08/04 Q1000 BLU

METARs EXPIRÉS :
  • 162355Z AUTO 23020G32KT 190V250 9999 FEW025 SCT029 08/05 Q0999 BLU
  • 162325Z AUTO 23018KT 9999 FEW026 SCT032 08/05 Q0999 BLU
  • 162255Z AUTO 23021KT 9999 FEW024 SCT027 08/05 Q0999 BLU
  • 162225Z AUTO 23019KT 200V270 9999 FEW022 SCT025 BKN029 08/05 Q0998 BLU
  • 162203Z AUTO 23020KT 9999 FEW020 SCT027 OVC160 08/05 Q0998 BLU
  • 162157Z AUTO 23019KT 9999 FEW020 SCT024 BKN029 08/05 Q0998 WHT

TAF TAF EHLW
Valide du 16 à 22h jusqu'au 17 à 10h UTC


162132Z 1622/1710 23020G30KT CAVOK
BECMG 1622/1701 23025G35KT
PROB30
TEMPO 1623/1706 24025G40KT
PROB40
TEMPO 1709/1710 4000 SHRA SCT018CB BKN025



MET'MAP, la Météo Aéronautique d'un coup d'oeil ! - Copyright ORBIFLY Décembre 2007 - Disclaimer

ORBIFLY MET'MAP TEAM :

Programmation & Développement : Alexandra Zaïnal
Sur une idée originale de : Baudouin d'Aumeries
Assistance à la programmation : Marc-Olivier Méhu
Soutien technique & logistique : Manuel Goepfert

Contact : metmap@orbifly.com




SOURCES & CREDITS :

   NOAA